Time;durP1;ratioP1;P1;durP2;ratioP2;P2;SDS_P1;SDS_P2;PMS_P1;PMS_P2;Temp;Humidity;BMP_temperature;BMP_pressure;BME280_temperature;BME280_humidity;BME280_pressure;Samples;Min_cycle;Max_cycle;Signal;HPM_P1;HPM_P2
2023/02/09 00:01:51;;;;;;;0.10;0.10;;;;;;;7.57;66.41;102219.72;7358892;19;20014;-61
2023/02/09 00:04:17;;;;;;;0.00;0.00;;;;;;;7.61;66.46;102237.09;7355815;19;20007;-61
2023/02/09 00:06:42;;;;;;;0.10;0.10;;;;;;;7.52;66.37;102238.72;7344450;19;20036;-61
2023/02/09 00:09:08;;;;;;;0.00;0.00;;;;;;;7.47;66.55;102242.97;7347834;19;20140;-61
2023/02/09 00:14:18;;;;;;;0.10;0.10;;;;;;;7.38;66.35;102253.22;7352444;19;20010;-61
2023/02/09 00:16:44;;;;;;;0.00;0.00;;;;;;;7.27;66.53;102252.19;7357944;19;25247;-61
2023/02/09 00:19:11;;;;;;;0.00;0.00;;;;;;;7.24;66.87;102259.91;7348474;19;20463;-62
2023/02/09 00:21:36;;;;;;;0.00;0.00;;;;;;;7.21;66.80;102271.16;7360685;19;20682;-62
2023/02/09 00:24:02;;;;;;;0.10;0.10;;;;;;;7.11;66.94;102264.06;7364017;19;20014;-61
2023/02/09 00:26:27;;;;;;;0.10;0.10;;;;;;;6.99;66.49;102261.25;7358062;19;20078;-61
2023/02/09 00:28:53;;;;;;;0.00;0.00;;;;;;;6.94;66.60;102261.16;7362638;19;20038;-62
2023/02/09 00:31:18;;;;;;;0.10;0.10;;;;;;;6.85;66.35;102250.63;7364449;19;20055;-61
2023/02/09 00:33:44;;;;;;;0.00;0.00;;;;;;;6.95;66.37;102275.91;7360264;19;20647;-62
2023/02/09 00:36:12;;;;;;;0.10;0.10;;;;;;;6.92;66.46;102286.22;7357582;19;20023;-61
2023/02/09 00:38:37;;;;;;;;;;;;;;;6.89;65.42;102290.50;7353026;19;20031;-61
2023/02/09 00:41:03;;;;;;;0.00;0.00;;;;;;;6.81;66.15;102289.50;7365888;19;19915;-62
2023/02/09 00:43:28;;;;;;;0.00;0.00;;;;;;;6.44;66.20;102240.38;7365106;19;20080;-62
2023/02/09 00:45:54;;;;;;;0.00;0.00;;;;;;;6.71;66.11;102307.50;7361751;19;20869;-62
2023/02/09 00:48:19;;;;;;;0.05;0.05;;;;;;;6.67;66.23;102304.81;7357208;19;20017;-62
2023/02/09 00:50:45;;;;;;;0.00;0.00;;;;;;;6.50;66.47;102287.19;7365183;19;20011;-62
2023/02/09 00:53:10;;;;;;;0.00;0.00;;;;;;;6.45;67.05;102294.00;7364927;19;20010;-62
2023/02/09 00:55:36;;;;;;;0.00;0.00;;;;;;;6.43;66.65;102313.84;7362588;19;20010;-59
2023/02/09 00:58:01;;;;;;;0.00;0.00;;;;;;;6.40;66.89;102321.59;7361231;19;20031;-61
2023/02/09 01:00:27;;;;;;;0.10;0.10;;;;;;;6.44;66.66;102333.78;7363303;19;20396;-62
2023/02/09 01:02:55;;;;;;;0.00;0.00;;;;;;;6.40;66.86;102350.13;7364633;19;20561;-62
2023/02/09 01:05:20;;;;;;;0.00;0.00;;;;;;;6.32;66.75;102343.91;7362757;19;20011;-61
2023/02/09 01:07:46;;;;;;;0.00;0.00;;;;;;;6.19;66.62;102331.53;7355742;19;20003;-62
2023/02/09 01:10:11;;;;;;;0.05;0.05;;;;;;;6.25;66.97;102349.81;7363547;19;20026;-62
2023/02/09 01:12:39;;;;;;;0.10;0.10;;;;;;;6.31;67.11;102373.28;7361684;19;20014;-62
2023/02/09 01:15:06;;;;;;;0.05;0.05;;;;;;;6.26;67.17;102364.53;7366255;19;20014;-62
2023/02/09 01:17:31;;;;;;;0.00;0.00;;;;;;;6.25;66.82;102367.97;7360146;19;20740;-62
2023/02/09 01:19:56;;;;;;;0.10;0.10;;;;;;;6.22;66.35;102365.28;7361328;19;20123;-62
2023/02/09 01:22:22;;;;;;;0.00;0.00;;;;;;;6.17;66.44;102359.13;7356053;19;20517;-61
2023/02/09 01:24:47;;;;;;;0.00;0.00;;;;;;;6.11;66.49;102351.22;7358954;19;20010;-62
2023/02/09 01:27:13;;;;;;;0.10;0.10;;;;;;;6.09;66.43;102346.00;7363322;19;20568;-61
2023/02/09 01:29:39;;;;;;;0.00;0.00;;;;;;;5.99;66.70;102338.88;7362746;19;20090;-61
2023/02/09 01:32:04;;;;;;;0.00;0.00;;;;;;;5.86;66.45;102316.06;7361361;19;20018;-61
2023/02/09 01:34:29;;;;;;;0.10;0.10;;;;;;;5.94;66.72;102333.56;7360298;19;20010;-62
2023/02/09 01:36:55;;;;;;;0.10;0.10;;;;;;;5.95;66.46;102348.28;7357549;19;20010;-62
2023/02/09 01:39:20;;;;;;;0.00;0.00;;;;;;;5.88;66.16;102340.28;7362108;19;20018;-62
2023/02/09 01:41:46;;;;;;;0.00;0.00;;;;;;;5.87;66.39;102349.78;7357837;19;20036;-62
2023/02/09 01:44:11;;;;;;;0.10;0.10;;;;;;;5.85;66.35;102348.00;7364151;19;20018;-62
2023/02/09 01:46:38;;;;;;;0.00;0.00;;;;;;;5.54;66.89;102305.81;7356773;19;20066;-62
2023/02/09 01:49:14;;;;;;;0.00;0.00;;;;;;;5.79;66.23;102360.84;7360084;19;20470;-62
2023/02/09 01:51:51;;;;;;;0.10;0.10;;;;;;;5.69;67.15;102346.78;7362767;19;20038;-61
2023/02/09 01:54:23;;;;;;;0.10;0.10;;;;;;;5.71;66.92;102360.63;7358229;19;20014;-62
2023/02/09 01:57:00;;;;;;;0.10;0.10;;;;;;;5.68;66.63;102368.38;7356222;19;20388;-61
2023/02/09 01:59:26;;;;;;;0.00;0.00;;;;;;;5.59;67.06;102362.94;7359812;19;20014;-62
2023/02/09 02:01:52;;;;;;;0.00;0.00;;;;;;;5.48;66.99;102341.97;7363927;19;20500;-62
2023/02/09 02:04:19;;;;;;;0.10;0.10;;;;;;;5.51;66.73;102354.09;7359337;19;20023;-62
2023/02/09 02:06:46;;;;;;;0.00;0.00;;;;;;;5.52;66.59;102355.84;7361477;19;20022;-62
2023/02/09 02:09:14;;;;;;;0.00;0.00;;;;;;;5.36;66.26;102334.75;7361647;19;21119;-61
2023/02/09 02:11:43;;;;;;;0.10;0.10;;;;;;;5.51;66.48;102359.28;7362047;19;20015;-62
2023/02/09 02:14:32;;;;;;;0.10;0.10;;;;;;;5.47;66.48;102363.50;7356418;19;20022;-61
2023/02/09 02:17:06;;;;;;;0.00;0.00;;;;;;;5.44;66.76;102369.50;7361376;19;20018;-62
2023/02/09 02:19:50;;;;;;;0.10;0.10;;;;;;;5.40;66.50;102372.84;7361634;19;20010;-62
2023/02/09 02:22:43;;;;;;;0.00;0.00;;;;;;;5.37;66.19;102366.69;7358344;19;20652;-62
2023/02/09 02:25:42;;;;;;;0.00;0.00;;;;;;;5.26;66.52;102353.47;7239903;19;2004506;-62
2023/02/09 02:28:29;;;;;;;0.00;0.00;;;;;;;5.18;66.79;102345.53;7255434;19;2004262;-62
2023/02/09 02:31:15;;;;;;;0.00;0.00;;;;;;;5.28;66.36;102374.25;7362726;19;20014;-62
2023/02/09 02:34:02;;;;;;;0.00;0.00;;;;;;;5.12;66.53;102365.19;7359760;19;20003;-61
2023/02/09 02:36:33;;;;;;;0.00;0.00;;;;;;;5.20;66.88;102389.59;7362141;19;20010;-62
2023/02/09 02:39:10;;;;;;;0.00;0.00;;;;;;;5.18;66.47;102383.50;7343150;19;20013;-62
2023/02/09 02:44:44;;;;;;;0.00;0.00;;;;;;;5.07;67.12;102383.22;7257354;19;2004738;-61
2023/02/09 02:47:16;;;;;;;0.00;0.00;;;;;;;5.08;67.77;102394.44;7364191;19;20709;-62
2023/02/09 02:49:52;;;;;;;0.00;0.00;;;;;;;5.04;67.03;102390.03;7360988;19;20018;-62
2023/02/09 02:52:17;;;;;;;0.00;0.00;;;;;;;5.00;66.83;102386.47;7358949;19;20021;-62
2023/02/09 02:54:53;;;;;;;0.10;0.10;;;;;;;5.00;66.72;102385.59;7361179;19;20813;-62
2023/02/09 02:57:25;;;;;;;0.00;0.00;;;;;;;4.97;67.10;102382.91;7358982;19;20804;-62
2023/02/09 02:59:55;;;;;;;0.10;0.10;;;;;;;4.94;67.33;102376.81;7345228;19;20832;-62
2023/02/09 03:02:37;;;;;;;0.00;0.00;;;;;;;4.83;66.82;102362.72;7358926;19;20015;-62
2023/02/09 03:05:04;;;;;;;0.00;0.00;;;;;;;4.91;67.24;102384.50;7361050;19;20017;-61
2023/02/09 03:07:30;;;;;;;0.00;0.00;;;;;;;4.89;67.63;102393.06;7356137;19;20368;-61
2023/02/09 03:09:56;;;;;;;0.10;0.10;;;;;;;4.80;66.87;102387.63;7357529;19;20006;-62
2023/02/09 03:12:52;;;;;;;0.10;0.10;;;;;;;4.82;66.74;102397.19;7355841;19;20021;-61
2023/02/09 03:15:27;;;;;;;0.00;0.00;;;;;;;4.83;67.57;102405.84;7253767;19;2004310;-61
2023/02/09 03:18:11;;;;;;;0.00;0.00;;;;;;;4.79;67.39;102406.56;7358956;19;20013;-62
2023/02/09 03:20:47;;;;;;;0.10;0.10;;;;;;;4.78;67.44;102408.28;7356531;19;20017;-62
2023/02/09 03:23:36;;;;;;;0.08;0.08;;;;;;;4.61;67.32;102392.28;7355400;19;20010;-62
2023/02/09 03:26:08;;;;;;;0.00;0.00;;;;;;;4.60;67.12;102394.81;7358863;19;20425;-62
2023/02/09 03:28:36;;;;;;;0.10;0.10;;;;;;;4.68;67.46;102414.03;7357222;19;20007;-62
2023/02/09 03:31:03;;;;;;;0.00;0.00;;;;;;;4.61;67.52;102406.91;7359482;19;20032;-62
2023/02/09 03:33:31;;;;;;;0.00;0.00;;;;;;;4.55;67.32;102386.91;7357836;19;20745;-62
2023/02/09 03:35:59;;;;;;;0.00;0.00;;;;;;;4.36;67.05;102349.31;7356796;19;20014;-62
2023/02/09 03:38:26;;;;;;;0.10;0.10;;;;;;;4.59;67.19;102396.53;7359182;19;20648;-62
2023/02/09 03:40:52;;;;;;;0.00;0.00;;;;;;;4.56;67.43;102392.97;7356669;19;20011;-62
2023/02/09 03:43:18;;;;;;;0.00;0.00;;;;;;;4.41;67.06;102373.59;7353149;19;20070;-62
2023/02/09 03:45:43;;;;;;;0.00;0.00;;;;;;;4.38;67.13;102364.88;7358246;19;20092;-62
2023/02/09 03:48:09;;;;;;;0.00;0.00;;;;;;;4.42;66.94;102369.31;7358538;19;19998;-62
2023/02/09 03:50:35;;;;;;;0.10;0.10;;;;;;;4.46;67.24;102378.00;7352982;19;20756;-62
2023/02/09 03:53:01;;;;;;;0.10;0.10;;;;;;;4.35;66.78;102365.63;7358942;19;20010;-62
2023/02/09 03:55:27;;;;;;;0.00;0.00;;;;;;;4.40;66.74;102381.28;7351090;19;20010;-62
2023/02/09 03:57:52;;;;;;;0.00;0.00;;;;;;;4.39;66.61;102389.91;7359674;19;20013;-62
2023/02/09 04:00:18;;;;;;;0.00;0.00;;;;;;;4.34;67.21;102371.66;7359355;19;20003;-61
2023/02/09 04:02:44;;;;;;;0.00;0.00;;;;;;;4.33;66.67;102375.06;7365865;19;20011;-62
2023/02/09 04:05:10;;;;;;;0.10;0.10;;;;;;;4.25;66.94;102368.78;7342316;19;20788;-62
2023/02/09 04:07:36;;;;;;;0.10;0.10;;;;;;;4.29;67.18;102388.75;7361251;19;20011;-61
2023/02/09 04:10:02;;;;;;;0.00;0.00;;;;;;;4.26;66.98;102387.75;7362498;19;20034;-61
2023/02/09 04:12:28;;;;;;;0.00;0.00;;;;;;;4.13;66.88;102376.19;7359378;19;20011;-62
2023/02/09 04:14:53;;;;;;;0.00;0.00;;;;;;;4.05;67.00;102375.06;7365180;19;20018;-62
2023/02/09 04:17:19;;;;;;;0.10;0.10;;;;;;;4.10;66.90;102376.94;7363416;19;20014;-62
2023/02/09 04:19:44;;;;;;;0.00;0.00;;;;;;;4.05;67.42;102372.47;7360801;19;20025;-62
2023/02/09 04:22:09;;;;;;;0.10;0.10;;;;;;;3.99;67.61;102365.41;7346672;19;20081;-62
2023/02/09 04:24:35;;;;;;;0.00;0.00;;;;;;;4.11;66.77;102388.19;7365326;19;20887;-62
2023/02/09 04:27:00;;;;;;;0.00;0.00;;;;;;;4.11;67.34;102390.78;7360774;19;20018;-62
2023/02/09 04:29:26;;;;;;;0.00;0.00;;;;;;;4.06;67.35;102389.78;7363135;19;20038;-62
2023/02/09 04:31:51;;;;;;;0.10;0.10;;;;;;;4.02;67.28;102393.06;7362050;19;20019;-61
2023/02/09 04:34:19;;;;;;;0.08;0.08;;;;;;;3.76;67.34;102358.66;7364885;19;20347;-61
2023/02/09 04:36:45;;;;;;;0.00;0.00;;;;;;;3.60;67.73;102339.22;7363515;19;20017;-62
2023/02/09 04:39:10;;;;;;;0.00;0.00;;;;;;;4.00;66.93;102410.22;7363525;19;20014;-62
2023/02/09 04:41:36;;;;;;;0.00;0.00;;;;;;;3.95;67.27;102411.78;7364505;19;20006;-62
2023/02/09 04:44:01;;;;;;;0.10;0.10;;;;;;;3.73;67.31;102395.59;7361445;19;20009;-62
2023/02/09 04:46:27;;;;;;;0.10;0.10;;;;;;;3.95;66.99;102429.88;7363852;19;20014;-62
2023/02/09 04:48:52;;;;;;;0.00;0.00;;;;;;;3.87;67.05;102425.34;7362827;19;20006;-62
2023/02/09 04:51:17;;;;;;;0.00;0.00;;;;;;;3.86;66.96;102435.66;7365126;19;20020;-61
2023/02/09 04:53:43;;;;;;;0.00;0.00;;;;;;;3.64;66.97;102390.13;7361875;19;20015;-62
2023/02/09 04:56:13;;;;;;;0.00;0.00;;;;;;;3.75;66.90;102419.81;7363275;19;20006;-63
2023/02/09 05:01:23;;;;;;;0.00;0.00;;;;;;;3.81;67.36;102443.25;7364105;19;20078;-62
2023/02/09 05:03:49;;;;;;;0.03;0.03;;;;;;;3.80;67.26;102441.50;7363690;19;20458;-62
2023/02/09 05:06:15;;;;;;;0.10;0.10;;;;;;;3.77;66.78;102441.38;7361959;19;20026;-62
2023/02/09 05:08:40;;;;;;;0.00;0.00;;;;;;;3.71;67.05;102437.72;7363614;19;20014;-62
2023/02/09 05:11:06;;;;;;;0.10;0.10;;;;;;;3.59;67.36;102433.00;7360671;19;20018;-61
2023/02/09 05:13:31;;;;;;;0.00;0.00;;;;;;;3.65;67.36;102446.16;7362387;19;20113;-61
2023/02/09 05:15:57;;;;;;;0.00;0.00;;;;;;;3.59;67.10;102449.38;7357639;19;20010;-61
2023/02/09 05:18:23;;;;;;;0.00;0.00;;;;;;;3.70;67.42;102467.88;7365078;19;20020;-61
2023/02/09 05:20:49;;;;;;;0.10;0.10;;;;;;;3.52;67.64;102431.06;7361667;19;20105;-62
2023/02/09 05:23:14;;;;;;;0.00;0.00;;;;;;;3.67;67.28;102466.88;7361387;19;20762;-61
2023/02/09 05:25:40;;;;;;;0.10;0.10;;;;;;;3.57;67.24;102457.94;7359196;19;20017;-62
2023/02/09 05:28:06;;;;;;;0.10;0.10;;;;;;;3.54;67.53;102448.34;7351318;19;20007;-61
2023/02/09 05:30:32;;;;;;;0.10;0.10;;;;;;;3.46;67.17;102434.31;7349153;19;20382;-62
2023/02/09 05:32:57;;;;;;;0.00;0.00;;;;;;;3.56;67.87;102448.44;7349552;19;20644;-62
2023/02/09 05:35:23;;;;;;;0.10;0.10;;;;;;;3.44;67.86;102437.66;7347549;19;20027;-62
2023/02/09 05:37:48;;;;;;;0.05;0.05;;;;;;;3.46;67.18;102441.19;7351237;19;21384;-62
2023/02/09 05:40:14;;;;;;;0.08;0.08;;;;;;;3.60;67.59;102463.22;7350911;19;20006;-62
2023/02/09 05:42:40;;;;;;;0.00;0.00;;;;;;;3.53;67.69;102454.34;7358173;19;20002;-62
2023/02/09 05:45:06;;;;;;;0.00;0.00;;;;;;;3.58;67.88;102468.31;7356769;19;20017;-62
2023/02/09 05:47:32;;;;;;;0.00;0.00;;;;;;;3.53;67.66;102458.63;7361223;19;20085;-62
2023/02/09 05:49:57;;;;;;;0.00;0.00;;;;;;;3.43;67.04;102441.06;7358239;19;20042;-62
2023/02/09 05:52:23;;;;;;;0.00;0.00;;;;;;;3.51;67.49;102468.06;7364170;19;20011;-61
2023/02/09 05:54:48;;;;;;;0.08;0.08;;;;;;;3.55;67.93;102469.94;7357095;19;20017;-61
2023/02/09 05:57:14;;;;;;;0.00;0.00;;;;;;;3.53;67.63;102458.63;7362729;19;20691;-62
2023/02/09 05:59:40;;;;;;;0.10;0.10;;;;;;;3.53;67.84;102461.22;7362850;19;20033;-62
2023/02/09 06:02:06;;;;;;;0.00;0.00;;;;;;;3.43;67.73;102446.25;7361856;19;20015;-62
2023/02/09 06:04:32;;;;;;;0.00;0.00;;;;;;;3.49;67.90;102472.28;7363166;19;20010;-62
2023/02/09 06:06:57;;;;;;;0.10;0.10;;;;;;;3.48;67.93;102481.72;7361194;19;20683;-62
2023/02/09 06:09:23;;;;;;;0.00;0.00;;;;;;;3.46;67.65;102477.34;7360783;19;20006;-62
2023/02/09 06:11:48;;;;;;;0.10;0.10;;;;;;;3.47;67.81;102494.59;7362091;19;20006;-61
2023/02/09 06:14:15;;;;;;;0.10;0.10;;;;;;;3.47;67.66;102495.47;7362739;19;20098;-62
2023/02/09 06:16:40;;;;;;;0.00;0.00;;;;;;;3.27;68.01;102466.34;7362522;19;20013;-62
2023/02/09 06:19:11;;;;;;;0.00;0.00;;;;;;;3.37;67.55;102489.09;7361240;19;20007;-62
2023/02/09 06:21:36;;;;;;;0.00;0.00;;;;;;;3.37;67.79;102494.25;7358916;19;20593;-63
2023/02/09 06:24:02;;;;;;;0.00;0.00;;;;;;;3.34;67.83;102499.31;7364007;19;21353;-62
2023/02/09 06:26:27;;;;;;;0.03;0.03;;;;;;;3.42;67.39;102506.47;7354537;19;20040;-62
2023/02/09 06:28:53;;;;;;;0.00;0.00;;;;;;;3.30;67.38;102492.31;7363791;19;20015;-62
2023/02/09 06:31:18;;;;;;;0.10;0.10;;;;;;;3.29;68.09;102494.81;7361147;19;20015;-62
2023/02/09 06:33:43;;;;;;;0.10;0.10;;;;;;;3.21;67.99;102485.94;7360444;19;20009;-62
2023/02/09 06:36:09;;;;;;;0.10;0.10;;;;;;;3.11;67.70;102487.28;7358596;19;20006;-62
2023/02/09 06:38:36;;;;;;;0.10;0.10;;;;;;;3.38;67.61;102526.13;7358738;19;20011;-61
2023/02/09 06:41:02;;;;;;;0.00;0.00;;;;;;;3.26;67.82;102516.25;7356239;19;20494;-62
2023/02/09 06:43:27;;;;;;;0.10;0.10;;;;;;;3.31;67.73;102530.19;7359883;19;19995;-61
2023/02/09 06:45:53;;;;;;;0.00;0.00;;;;;;;3.24;67.39;102507.53;7359666;19;20022;-62
2023/02/09 06:48:18;;;;;;;0.10;0.10;;;;;;;3.24;67.51;102519.56;7359420;19;20003;-62
2023/02/09 06:50:44;;;;;;;0.10;0.10;;;;;;;3.21;67.50;102517.78;7360257;19;20025;-60
2023/02/09 06:53:09;;;;;;;0.10;0.10;;;;;;;3.13;67.42;102504.56;7359111;19;20085;-62
2023/02/09 06:55:35;;;;;;;0.10;0.10;;;;;;;3.19;67.78;102509.09;7361075;19;20034;-62
2023/02/09 06:58:00;;;;;;;0.10;0.10;;;;;;;2.99;67.40;102481.66;7348198;19;20017;-62
2023/02/09 07:00:26;;;;;;;0.10;0.10;;;;;;;3.33;67.58;102543.16;7358657;19;20852;-62
2023/02/09 07:02:52;;;;;;;0.10;0.10;;;;;;;3.19;67.76;102528.84;7359261;19;20010;-62
2023/02/09 07:05:18;;;;;;;0.00;0.00;;;;;;;3.21;67.68;102538.44;7356601;19;20010;-61
2023/02/09 07:07:45;;;;;;;0.00;0.00;;;;;;;3.32;68.05;102557.78;7359320;19;20018;-62
2023/02/09 07:10:12;;;;;;;0.10;0.10;;;;;;;2.90;67.90;102486.50;7355845;19;20162;-61
2023/02/09 07:12:39;;;;;;;;;;;;;;;3.35;67.14;102567.34;7354683;19;20141;-62
2023/02/09 07:15:06;;;;;;;0.00;0.00;;;;;;;3.23;67.20;102552.25;7356965;19;19950;-61
2023/02/09 07:17:32;;;;;;;0.00;0.00;;;;;;;3.32;67.16;102562.94;7359533;19;20034;-62
2023/02/09 07:19:57;;;;;;;0.10;0.10;;;;;;;3.21;67.76;102553.03;7355248;19;20632;-61
2023/02/09 07:22:24;;;;;;;0.00;0.00;;;;;;;3.17;67.44;102546.00;7358035;19;20022;-62
2023/02/09 07:24:50;;;;;;;0.10;0.10;;;;;;;3.17;67.65;102546.88;7357953;19;20073;-62
2023/02/09 07:27:15;;;;;;;0.10;0.10;;;;;;;3.20;67.35;102559.03;7356675;19;20050;-62
2023/02/09 07:29:41;;;;;;;0.10;0.10;;;;;;;3.28;67.42;102565.34;7352575;19;20048;-60
2023/02/09 07:32:06;;;;;;;0.10;0.10;;;;;;;3.13;67.70;102539.84;7355496;19;20010;-62
2023/02/09 07:34:33;;;;;;;0.10;0.10;;;;;;;3.28;67.89;102579.13;7358926;19;20143;-61
2023/02/09 07:36:58;;;;;;;0.10;0.10;;;;;;;3.24;67.68;102561.75;7352867;19;20011;-62
2023/02/09 07:39:24;;;;;;;0.08;0.08;;;;;;;3.25;67.39;102571.28;7358822;19;20006;-62
2023/02/09 07:41:49;;;;;;;0.10;0.10;;;;;;;3.20;67.52;102546.13;7359253;19;20011;-62
2023/02/09 07:44:15;;;;;;;0.05;0.05;;;;;;;3.07;67.16;102534.44;7353129;19;20638;-62
2023/02/09 07:46:41;;;;;;;0.00;0.00;;;;;;;3.19;67.23;102555.53;7357908;19;20006;-61
2023/02/09 07:49:06;;;;;;;0.00;0.00;;;;;;;3.19;67.31;102565.88;7352281;19;20110;-62
2023/02/09 07:51:31;;;;;;;0.00;0.00;;;;;;;3.25;67.67;102597.13;7357225;19;20498;-61
2023/02/09 07:53:58;;;;;;;0.05;0.05;;;;;;;3.33;67.46;102610.28;7355906;19;20010;-62
2023/02/09 07:56:27;;;;;;;0.00;0.00;;;;;;;3.35;67.20;102613.81;7355679;19;20015;-62
2023/02/09 07:58:53;;;;;;;0.03;0.03;;;;;;;3.27;67.24;102597.16;7355891;19;20784;-62
2023/02/09 08:01:19;;;;;;;0.10;0.10;;;;;;;3.34;67.31;102623.25;7351525;19;20006;-62
2023/02/09 08:03:47;;;;;;;0.10;0.10;;;;;;;3.28;67.34;102617.84;7347291;19;20942;-62
2023/02/09 08:06:49;;;;;;;0.10;0.10;;;;;;;3.36;67.46;102634.53;7348781;19;20018;-62
2023/02/09 08:09:18;;;;;;;0.00;0.00;;;;;;;3.35;67.42;102647.41;7252259;19;2004283;-62
2023/02/09 08:12:00;;;;;;;0.10;0.10;;;;;;;3.30;67.30;102639.47;7355586;19;20026;-60
2023/02/09 08:14:29;;;;;;;0.00;0.00;;;;;;;2.99;67.23;102596.13;7333315;19;20042;-61
2023/02/09 08:17:18;;;;;;;0.10;0.10;;;;;;;3.39;67.43;102663.03;7351885;19;20018;-61
2023/02/09 08:19:45;;;;;;;0.00;0.00;;;;;;;3.30;67.32;102649.81;7349339;19;20018;-61
2023/02/09 08:22:11;;;;;;;0.03;0.03;;;;;;;3.41;67.27;102662.25;7347884;19;20031;-61
2023/02/09 08:24:36;;;;;;;0.00;0.00;;;;;;;3.27;67.49;102626.44;7352452;19;20833;-61
2023/02/09 08:27:02;;;;;;;0.00;0.00;;;;;;;3.42;67.69;102651.09;7348338;19;20006;-61
2023/02/09 08:29:28;;;;;;;0.00;0.00;;;;;;;3.57;67.78;102667.16;7353096;19;20041;-61
2023/02/09 08:31:53;;;;;;;0.00;0.00;;;;;;;3.58;67.34;102650.84;7353111;19;20010;-61
2023/02/09 08:34:19;;;;;;;0.10;0.10;;;;;;;3.53;67.43;102640.31;7351946;19;20038;-60
2023/02/09 08:36:44;;;;;;;0.10;0.10;;;;;;;3.72;67.59;102667.72;7354517;19;20011;-60
2023/02/09 08:39:09;;;;;;;0.10;0.10;;;;;;;3.62;67.25;102652.72;7354263;19;20031;-62
2023/02/09 08:41:35;;;;;;;0.00;0.00;;;;;;;3.72;66.99;102662.56;7356933;19;20010;-61
2023/02/09 08:44:01;;;;;;;0.00;0.00;;;;;;;3.64;67.17;102648.47;7360971;19;20021;-61
2023/02/09 08:46:27;;;;;;;0.08;0.08;;;;;;;3.78;67.04;102667.94;7360339;19;20014;-61
2023/02/09 08:48:53;;;;;;;0.03;0.03;;;;;;;3.80;67.11;102674.06;7357964;19;20484;-62
2023/02/09 08:51:18;;;;;;;0.10;0.10;;;;;;;3.82;67.26;102675.00;7357960;19;19998;-61
2023/02/09 08:53:50;;;;;;;0.10;0.10;;;;;;;3.93;67.26;102680.56;7363800;19;20593;-61
2023/02/09 08:56:21;;;;;;;0.03;0.03;;;;;;;3.83;67.18;102650.03;7348551;19;20698;-61
2023/02/09 08:58:48;;;;;;;0.10;0.10;;;;;;;4.14;67.77;102689.06;7362133;19;20019;-61
2023/02/09 09:01:13;;;;;;;0.00;0.00;;;;;;;4.19;67.55;102676.31;7363776;19;20014;-61
2023/02/09 09:03:41;;;;;;;0.00;0.00;;;;;;;4.33;67.29;102698.38;7360973;19;20006;-62
2023/02/09 09:06:08;;;;;;;0.10;0.10;;;;;;;4.39;67.35;102693.41;7361070;19;20047;-61
2023/02/09 09:08:35;;;;;;;0.00;0.00;;;;;;;4.46;67.30;102698.78;7362351;19;20939;-61
2023/02/09 09:11:01;;;;;;;0.10;0.10;;;;;;;4.36;67.11;102664.84;7361081;19;20014;-62
2023/02/09 09:13:27;;;;;;;0.00;0.00;;;;;;;4.53;67.47;102693.00;7362819;19;20011;-62
2023/02/09 09:15:56;;;;;;;0.10;0.10;;;;;;;4.63;67.32;102695.06;7362452;19;20003;-60
2023/02/09 09:18:23;;;;;;;0.10;0.10;;;;;;;4.82;67.73;102702.63;7360588;19;20007;-60
2023/02/09 09:20:49;;;;;;;0.03;0.03;;;;;;;4.92;67.04;102693.44;7360711;19;20015;-61
2023/02/09 09:23:14;;;;;;;0.10;0.10;;;;;;;4.89;67.20;102665.75;7361798;19;20028;-62
2023/02/09 09:25:40;;;;;;;0.00;0.00;;;;;;;5.13;67.49;102681.19;7361756;19;20592;-62
2023/02/09 09:28:07;;;;;;;0.10;0.10;;;;;;;5.21;66.90;102663.28;7361685;19;20016;-61
2023/02/09 09:30:32;;;;;;;0.10;0.10;;;;;;;5.38;66.39;102685.41;7363324;19;20014;-60
2023/02/09 09:32:58;;;;;;;0.10;0.10;;;;;;;5.59;66.88;102694.66;7361145;19;20017;-61
2023/02/09 09:35:25;;;;;;;0.10;0.10;;;;;;;5.66;66.94;102681.03;7361790;19;20762;-62
2023/02/09 09:37:51;;;;;;;0.10;0.10;;;;;;;6.01;66.98;102699.34;7361784;19;19998;-61
2023/02/09 09:40:23;;;;;;;0.03;0.03;;;;;;;6.27;66.38;102713.91;7362822;19;20020;-62
2023/02/09 09:42:52;;;;;;;0.00;0.00;;;;;;;6.34;66.26;102699.41;7361156;19;20893;-62
2023/02/09 09:45:21;;;;;;;0.00;0.00;;;;;;;6.66;65.88;102715.81;7359815;19;20003;-61
2023/02/09 09:47:47;;;;;;;0.10;0.10;;;;;;;6.87;66.22;102718.06;7359374;19;20035;-61
2023/02/09 09:50:23;;;;;;;0.00;0.00;;;;;;;7.15;66.71;102730.03;7360916;19;20010;-62
2023/02/09 09:52:54;;;;;;;0.10;0.10;;;;;;;7.31;65.36;102721.75;7359477;19;20091;-62
2023/02/09 09:55:28;;;;;;;0.10;0.10;;;;;;;7.62;65.74;102725.03;7357711;19;20124;-62
2023/02/09 09:57:57;;;;;;;0.00;0.00;;;;;;;7.82;64.71;102722.88;7357724;19;20125;-62
2023/02/09 10:00:29;;;;;;;0.00;0.00;;;;;;;8.02;64.08;102719.81;7357989;19;20017;-61
2023/02/09 10:02:55;;;;;;;0.00;0.00;;;;;;;7.97;63.55;102700.66;7360036;19;20466;-62
2023/02/09 10:05:29;;;;;;;0.00;0.00;;;;;;;8.13;62.94;102707.03;7360593;19;20007;-62
2023/02/09 10:08:00;;;;;;;0.00;0.00;;;;;;;8.35;63.95;102718.72;7358555;19;20015;-61
2023/02/09 10:10:53;;;;;;;0.00;0.00;;;;;;;8.50;63.35;102724.25;7358666;19;20020;-62
2023/02/09 10:13:31;;;;;;;0.00;0.00;;;;;;;8.66;63.27;102714.09;7260026;19;2004523;-62
2023/02/09 10:15:57;;;;;;;0.00;0.00;;;;;;;8.70;62.86;102706.38;7359057;19;20705;-62
2023/02/09 10:18:26;;;;;;;0.10;0.10;;;;;;;9.00;62.96;102726.84;7360888;19;20019;-62
2023/02/09 10:21:09;;;;;;;0.00;0.00;;;;;;;9.21;61.79;102722.81;7359905;19;20014;-62
2023/02/09 10:23:49;;;;;;;0.00;0.00;;;;;;;9.45;62.24;102731.00;7361101;19;20478;-62
2023/02/09 10:26:19;;;;;;;0.08;0.08;;;;;;;9.62;61.08;102733.84;7355774;19;20013;-62
2023/02/09 10:28:56;;;;;;;0.00;0.00;;;;;;;9.76;60.14;102731.44;7360388;19;20011;-62
2023/02/09 10:31:24;;;;;;;0.00;0.00;;;;;;;10.04;61.97;102733.56;7359614;19;20018;-62
2023/02/09 10:34:00;;;;;;;0.10;0.10;;;;;;;10.26;60.58;102739.03;7361137;19;20018;-62
2023/02/09 10:36:32;;;;;;;0.00;0.00;;;;;;;10.41;58.88;102746.19;7356669;19;20034;-61
2023/02/09 10:39:03;;;;;;;0.00;0.00;;;;;;;10.71;61.01;102746.50;7357064;19;20161;-62
2023/02/09 10:41:33;;;;;;;0.10;0.10;;;;;;;10.90;58.72;102750.16;7357632;19;20017;-62
2023/02/09 10:43:58;;;;;;;0.00;0.00;;;;;;;11.04;58.70;102758.09;7359692;19;20018;-61
2023/02/09 10:46:24;;;;;;;0.00;0.00;;;;;;;11.23;56.93;102743.44;7357961;19;20031;-62
2023/02/09 10:48:50;;;;;;;0.00;0.00;;;;;;;11.40;57.70;102736.56;7356162;19;20038;-62
2023/02/09 10:51:28;;;;;;;0.10;0.10;;;;;;;11.67;57.24;102747.22;7360625;19;20499;-62
2023/02/09 10:53:56;;;;;;;0.00;0.00;;;;;;;11.86;56.65;102755.16;7359546;19;20101;-62
2023/02/09 10:56:27;;;;;;;0.00;0.00;;;;;;;11.83;55.35;102718.53;7358791;19;20112;-62
2023/02/09 10:59:01;;;;;;;0.00;0.00;;;;;;;12.17;56.81;102749.22;7358034;19;20485;-62
2023/02/09 11:01:33;;;;;;;0.10;0.10;;;;;;;12.22;55.18;102738.75;7357707;19;20026;-62
2023/02/09 11:04:03;;;;;;;0.05;0.05;;;;;;;12.43;52.86;102756.28;7358159;19;20143;-62
2023/02/09 11:06:53;;;;;;;0.05;0.05;;;;;;;12.35;53.05;102719.56;7352534;19;20014;-61
2023/02/09 11:09:42;;;;;;;0.00;0.00;;;;;;;12.66;54.30;102770.28;7359478;19;20014;-62
2023/02/09 11:12:10;;;;;;;0.05;0.05;;;;;;;12.75;52.58;102765.94;7358803;19;20006;-62
2023/02/09 11:14:36;;;;;;;0.05;0.05;;;;;;;12.85;51.99;102768.56;7358530;19;20010;-62
2023/02/09 11:17:19;;;;;;;0.10;0.10;;;;;;;13.00;52.84;102767.72;7357220;19;20010;-62
2023/02/09 11:20:03;;;;;;;0.00;0.00;;;;;;;13.12;53.08;102754.59;7357794;19;20026;-62
2023/02/09 11:22:50;;;;;;;0.00;0.00;;;;;;;13.31;51.24;102770.34;7358709;19;20466;-63
2023/02/09 11:25:31;;;;;;;0.00;0.00;;;;;;;13.56;53.20;102772.06;7355679;19;20010;-62
2023/02/09 11:28:05;;;;;;;0.10;0.10;;;;;;;13.60;50.13;102768.56;7358894;19;20754;-62
2023/02/09 11:30:55;;;;;;;0.00;0.00;;;;;;;13.85;51.76;102772.00;7357012;19;20019;-62
2023/02/09 11:33:51;;;;;;;0.00;0.00;;;;;;;14.03;52.03;102763.16;7356506;19;20074;-62
2023/02/09 11:36:37;;;;;;;0.00;0.00;;;;;;;14.19;52.24;102762.25;7257992;19;2004314;-63
2023/02/09 11:39:20;;;;;;;0.00;0.00;;;;;;;14.35;49.03;102754.28;7255942;19;2004312;-62
2023/02/09 11:44:59;;;;;;;0.10;0.10;;;;;;;14.68;49.62;102740.06;7257518;19;2004357;-62
2023/02/09 11:47:39;;;;;;;0.10;0.10;;;;;;;14.81;49.32;102743.50;7357284;19;20019;-62
2023/02/09 11:50:08;;;;;;;0.10;0.10;;;;;;;14.83;46.98;102731.19;7356436;19;20828;-62
2023/02/09 11:52:50;;;;;;;0.10;0.10;;;;;;;14.92;48.68;102731.97;7357390;19;20006;-62